Time;durP1;ratioP1;P1;durP2;ratioP2;P2;SDS_P1;SDS_P2;PMS_P1;PMS_P2;Temp;Humidity;BMP_temperature;BMP_pressure;BME280_temperature;BME280_humidity;BME280_pressure;Samples;Min_cycle;Max_cycle;Signal;HPM_P1;HPM_P2
2023/02/20 00:01:24;;;;;;;5.82;2.92;;;;;;;8.10;46.69;102277.97;5061064;28;20060;-68
2023/02/20 00:03:53;;;;;;;5.70;3.20;;;;;;;8.10;46.61;102272.53;5056601;28;20048;-69
2023/02/20 00:06:21;;;;;;;7.20;3.22;;;;;;;8.07;46.77;102267.25;5063016;28;20147;-69
2023/02/20 00:08:49;;;;;;;5.00;3.20;;;;;;;8.05;46.71;102267.34;5058040;28;20504;-69
2023/02/20 00:11:17;;;;;;;5.75;3.63;;;;;;;8.03;46.99;102269.25;5058870;28;20041;-68
2023/02/20 00:13:46;;;;;;;5.95;3.70;;;;;;;8.01;46.90;102256.69;5060484;28;20102;-68
2023/02/20 00:16:14;;;;;;;6.60;3.53;;;;;;;8.00;47.03;102250.34;5058070;28;20097;-69
2023/02/20 00:18:42;;;;;;;5.80;3.30;;;;;;;7.99;46.60;102244.97;5055462;28;20041;-69
2023/02/20 00:21:11;;;;;;;5.90;3.50;;;;;;;7.98;46.95;102259.56;5061066;28;20052;-69
2023/02/20 00:23:39;;;;;;;5.03;3.25;;;;;;;7.95;47.09;102246.97;5053403;28;20134;-68
2023/02/20 00:26:09;;;;;;;6.10;3.17;;;;;;;7.93;47.04;102257.97;5060081;28;20486;-69
2023/02/20 00:28:38;;;;;;;6.70;3.72;;;;;;;7.92;47.08;102258.06;5059274;28;20056;-68
2023/02/20 00:31:07;;;;;;;5.88;3.65;;;;;;;7.90;47.14;102258.16;5059751;28;20032;-69
2023/02/20 00:33:36;;;;;;;6.60;3.53;;;;;;;7.89;46.95;102250.06;5063059;28;20036;-69
2023/02/20 00:36:05;;;;;;;7.05;3.88;;;;;;;7.89;47.29;102250.94;5062471;28;20078;-69
2023/02/20 00:38:34;;;;;;;6.18;3.88;;;;;;;7.88;46.83;102243.72;5056227;28;20044;-69
2023/02/20 00:41:02;;;;;;;6.18;3.72;;;;;;;7.86;46.99;102245.63;5058378;28;20060;-69
2023/02/20 00:43:30;;;;;;;6.68;4.28;;;;;;;7.86;47.26;102236.56;5060742;28;20381;-69
2023/02/20 00:45:58;;;;;;;7.45;3.90;;;;;;;7.83;47.23;102242.22;5057262;28;20051;-69
2023/02/20 00:48:26;;;;;;;6.03;3.95;;;;;;;7.82;47.23;102241.34;5047722;28;20048;-69
2023/02/20 00:51:13;;;;;;;6.30;3.50;;;;;;;7.81;47.32;102241.41;5051278;28;20123;-69
2023/02/20 00:53:43;;;;;;;7.05;4.15;;;;;;;7.82;47.60;102233.16;5056121;28;20167;-69
2023/02/20 00:56:10;;;;;;;6.55;3.75;;;;;;;7.81;47.10;102234.13;5050784;28;20515;-69
2023/02/20 00:58:40;;;;;;;6.35;3.70;;;;;;;7.80;47.67;102223.28;5059256;28;20056;-69
2023/02/20 01:01:08;;;;;;;7.32;3.92;;;;;;;7.79;47.33;102222.41;5058801;28;20041;-69
2023/02/20 01:03:35;;;;;;;6.57;3.72;;;;;;;7.79;47.23;102216.06;5052535;28;20094;-69
2023/02/20 01:06:04;;;;;;;6.93;4.07;;;;;;;7.80;47.32;102212.38;5062507;28;20397;-69
2023/02/20 01:08:32;;;;;;;7.30;4.10;;;;;;;7.80;47.51;102209.66;5055179;28;20069;-69
2023/02/20 01:11:01;;;;;;;7.60;4.40;;;;;;;7.81;47.53;102208.72;5057928;28;20162;-69
2023/02/20 01:13:29;;;;;;;7.45;4.05;;;;;;;7.80;47.79;102206.94;5060229;28;20037;-69
2023/02/20 01:15:57;;;;;;;7.75;4.00;;;;;;;7.79;47.82;102200.59;5058866;28;20044;-68
2023/02/20 01:18:24;;;;;;;7.60;4.25;;;;;;;7.79;47.73;102194.28;5062457;28;20063;-69
2023/02/20 01:20:52;;;;;;;7.70;4.50;;;;;;;7.79;47.67;102189.72;5063964;28;20040;-69
2023/02/20 01:23:21;;;;;;;7.25;4.35;;;;;;;7.80;47.68;102188.75;5064363;28;20045;-69
2023/02/20 01:25:49;;;;;;;8.10;4.50;;;;;;;7.80;47.70;102179.69;5054829;28;21384;-68
2023/02/20 01:28:18;;;;;;;9.07;4.65;;;;;;;7.81;47.92;102176.00;5060612;28;20052;-67
2023/02/20 01:30:46;;;;;;;7.88;4.75;;;;;;;7.80;47.75;102168.78;5059467;28;20044;-67
2023/02/20 01:33:14;;;;;;;8.95;4.57;;;;;;;7.80;47.64;102163.34;5058630;28;20104;-68
2023/02/20 01:35:42;;;;;;;7.70;4.57;;;;;;;7.80;48.07;102163.34;5061576;28;20048;-68
2023/02/20 01:38:09;;;;;;;8.05;4.70;;;;;;;7.80;47.91;102172.38;5065317;28;20037;-68
2023/02/20 01:40:37;;;;;;;7.38;4.63;;;;;;;7.80;48.08;102166.06;5062063;28;20098;-67
2023/02/20 01:43:05;;;;;;;8.45;4.60;;;;;;;7.79;47.80;102151.53;5060237;28;20131;-67
2023/02/20 01:45:37;;;;;;;9.05;5.05;;;;;;;7.81;48.14;102163.25;5060815;28;20041;-68
2023/02/20 01:48:05;;;;;;;8.52;4.57;;;;;;;7.80;47.72;102161.50;5066104;28;20040;-68
2023/02/20 01:50:37;;;;;;;8.00;4.97;;;;;;;7.82;47.71;102177.75;5062811;28;20045;-68
2023/02/20 01:53:08;;;;;;;8.18;4.35;;;;;;;7.81;48.03;102176.00;5061725;28;20052;-68
2023/02/20 01:55:39;;;;;;;8.50;4.80;;;;;;;7.81;47.99;102176.00;5064556;28;20123;-68
2023/02/20 01:58:12;;;;;;;8.93;4.85;;;;;;;7.82;48.12;102164.13;5061171;28;20052;-68
2023/02/20 02:00:41;;;;;;;7.82;4.82;;;;;;;7.79;48.23;102162.44;5049251;28;20068;-68
2023/02/20 02:03:12;;;;;;;7.82;4.65;;;;;;;7.80;48.29;102158.75;5058382;28;20094;-68
2023/02/20 02:05:43;;;;;;;8.65;4.95;;;;;;;7.81;47.88;102159.66;5057118;28;20145;-68
2023/02/20 02:08:15;;;;;;;7.50;4.93;;;;;;;7.81;47.88;102152.34;5059740;28;20104;-68
2023/02/20 02:10:50;;;;;;;8.20;4.85;;;;;;;7.81;48.05;102151.47;5051342;28;20066;-68
2023/02/20 02:13:18;;;;;;;7.30;4.78;;;;;;;7.80;47.86;102141.53;5053851;28;20063;-68
2023/02/20 02:15:51;;;;;;;8.93;5.05;;;;;;;7.83;47.75;102135.91;5054961;28;20041;-69
2023/02/20 02:18:44;;;;;;;8.57;5.40;;;;;;;7.81;48.06;102130.53;5064858;28;20044;-68
2023/02/20 02:21:57;;;;;;;7.90;4.80;;;;;;;7.76;48.03;102134.50;5051753;28;20136;-68
2023/02/20 02:25:09;;;;;;;7.50;4.60;;;;;;;7.76;47.94;102132.66;5054602;28;20067;-68
2023/02/20 02:28:16;;;;;;;7.78;4.30;;;;;;;7.79;47.99;102118.84;5063241;28;20040;-68
2023/02/20 02:31:25;;;;;;;7.72;4.43;;;;;;;7.79;47.85;102127.03;5022994;28;20091;-68
2023/02/20 02:34:38;;;;;;;9.38;4.72;;;;;;;7.74;48.06;102120.97;5054610;28;20063;-68
2023/02/20 02:37:17;;;;;;;7.40;4.88;;;;;;;7.77;47.84;102108.97;5031918;28;20166;-68
2023/02/20 02:39:57;;;;;;;8.57;4.65;;;;;;;7.75;47.83;102100.94;5075540;22;20071;-76
2023/02/20 02:42:35;;;;;;;7.28;4.70;;;;;;;7.77;47.66;102101.69;5050682;28;20061;-76
2023/02/20 02:45:11;;;;;;;8.48;4.63;;;;;;;7.78;47.93;102106.19;5046772;28;20041;-76
2023/02/20 02:47:46;;;;;;;8.40;5.25;;;;;;;7.78;47.60;102099.84;5039802;28;20045;-77
2023/02/20 02:50:18;;;;;;;7.97;5.05;;;;;;;7.76;47.47;102088.19;5060833;28;20504;-77
2023/02/20 02:52:49;;;;;;;8.38;4.90;;;;;;;7.75;47.86;102089.13;5037617;28;20053;-76
2023/02/20 02:55:20;;;;;;;9.73;5.50;;;;;;;7.74;47.76;102093.72;5044203;28;20153;-78
2023/02/20 02:57:48;;;;;;;8.95;5.18;;;;;;;7.74;47.70;102090.09;5049886;28;20481;-78
2023/02/20 03:00:20;;;;;;;9.85;4.95;;;;;;;7.74;47.65;102090.09;5036675;28;20428;-78
2023/02/20 03:02:54;;;;;;;7.50;4.88;;;;;;;7.75;47.54;102089.13;5059567;28;20422;-78
2023/02/20 03:05:39;;;;;;;8.23;4.97;;;;;;;7.74;47.77;102098.28;5047797;28;20071;-78
2023/02/20 03:08:21;;;;;;;8.15;4.70;;;;;;;7.74;47.68;102098.28;5051762;28;20075;-78
2023/02/20 03:10:53;;;;;;;9.50;5.53;;;;;;;7.72;47.84;102094.75;5043605;28;20067;-78
2023/02/20 03:16:15;;;;;;;9.13;5.05;;;;;;;7.71;47.89;102082.09;5048443;28;20044;-78
2023/02/20 03:18:46;;;;;;;7.95;4.70;;;;;;;7.70;47.93;102085.78;5039429;28;20054;-78
2023/02/20 03:21:19;;;;;;;8.32;5.22;;;;;;;7.69;47.53;102086.72;5051760;28;20088;-78
2023/02/20 03:23:55;;;;;;;8.63;5.15;;;;;;;7.71;47.66;102082.09;5043588;28;20441;-78
2023/02/20 03:26:30;;;;;;;8.20;5.07;;;;;;;7.70;47.80;102072.16;5048140;28;20380;-78
2023/02/20 03:29:02;;;;;;;8.57;5.45;;;;;;;7.70;47.39;102066.69;5041613;28;20469;-78
2023/02/20 03:31:35;;;;;;;9.75;5.93;;;;;;;7.65;47.98;102064.25;5041282;28;20094;-78
2023/02/20 03:45:33;;;;;;;10.63;5.60;;;;;;;7.60;47.73;102063.59;5065782;28;20069;-76
2023/02/20 03:48:07;;;;;;;8.85;5.07;;;;;;;7.60;47.80;102060.03;5051774;28;20073;-78
2023/02/20 03:50:35;;;;;;;9.75;4.85;;;;;;;7.60;47.82;102057.31;5045239;28;20149;-78
2023/02/20 03:53:03;;;;;;;10.85;5.60;;;;;;;7.58;47.66;102041.94;5049948;28;20045;-78
2023/02/20 03:55:33;;;;;;;9.55;5.28;;;;;;;7.59;47.91;102050.97;5051081;28;20076;-78
2023/02/20 03:58:09;;;;;;;9.77;4.78;;;;;;;7.58;47.94;102054.66;5046297;28;20080;-78
2023/02/20 04:00:43;;;;;;;10.05;5.20;;;;;;;7.56;47.63;102048.41;5044268;28;20087;-77
2023/02/20 04:03:16;;;;;;;9.60;4.85;;;;;;;7.58;47.62;102049.22;5052813;28;20523;-78
2023/02/20 04:05:51;;;;;;;9.80;5.85;;;;;;;7.57;47.67;102053.78;5066962;28;20037;-78
2023/02/20 04:08:30;;;;;;;9.50;5.47;;;;;;;7.56;47.55;102048.41;5060440;28;20115;-78
2023/02/20 04:11:03;;;;;;;9.55;5.05;;;;;;;7.57;47.61;102052.91;5056718;28;20041;-78
2023/02/20 04:13:33;;;;;;;8.25;4.70;;;;;;;7.55;47.90;102055.72;5047494;28;20553;-78
2023/02/20 04:16:02;;;;;;;9.13;5.10;;;;;;;7.54;47.77;102051.22;5051648;28;20065;-78
2023/02/20 04:18:31;;;;;;;8.70;4.80;;;;;;;7.53;47.75;102054.91;5049179;28;20507;-76
2023/02/20 04:21:05;;;;;;;8.20;4.72;;;;;;;7.52;47.66;102050.41;5048971;28;20049;-77
2023/02/20 04:23:42;;;;;;;8.88;5.15;;;;;;;7.52;47.80;102050.41;5047515;28;20727;-79
2023/02/20 04:26:15;;;;;;;8.65;4.68;;;;;;;7.51;47.98;102048.69;5048093;28;20053;-76
2023/02/20 04:28:46;;;;;;;9.15;4.88;;;;;;;7.49;47.67;102052.44;5047789;28;20041;-76
2023/02/20 04:31:17;;;;;;;9.18;4.43;;;;;;;7.50;47.66;102046.03;5047148;28;20139;-76
2023/02/20 04:33:47;;;;;;;9.00;4.50;;;;;;;7.48;47.81;102042.50;5042376;28;20414;-76
2023/02/20 04:36:21;;;;;;;11.23;5.30;;;;;;;7.47;48.01;102038.91;5050521;28;20384;-76
2023/02/20 04:38:51;;;;;;;8.98;4.15;;;;;;;7.47;47.80;102035.31;5038368;28;20532;-76
2023/02/20 04:41:25;;;;;;;9.43;4.40;;;;;;;7.46;48.08;102041.72;5045700;28;20106;-76
2023/02/20 04:44:29;;;;;;;9.02;4.47;;;;;;;7.46;47.80;102041.72;5048105;28;20087;-78
2023/02/20 04:46:42;;;;;;;8.73;3.97;;;;;;;7.45;47.83;102042.69;5048337;28;20388;-78
2023/02/20 04:49:10;;;;;;;7.53;3.88;;;;;;;7.45;48.17;102039.94;5055759;28;20043;-78
2023/02/20 04:51:39;;;;;;;7.00;4.00;;;;;;;7.45;47.81;102043.56;5057551;28;20050;-78
2023/02/20 04:54:08;;;;;;;9.00;4.75;;;;;;;7.44;48.25;102041.78;5051961;28;20052;-78
2023/02/20 04:56:37;;;;;;;8.60;4.68;;;;;;;7.45;47.82;102035.38;5049144;28;20057;-78
2023/02/20 04:59:05;;;;;;;8.43;4.65;;;;;;;7.41;47.94;102028.38;5042584;28;20041;-78
2023/02/20 05:01:33;;;;;;;7.72;3.80;;;;;;;7.44;48.13;102040.91;5039060;28;20045;-78
2023/02/20 05:04:01;;;;;;;8.40;4.28;;;;;;;7.44;48.14;102032.75;5043909;28;20377;-78
2023/02/20 05:06:29;;;;;;;6.93;3.83;;;;;;;7.43;47.96;102034.63;5036549;28;20518;-78
2023/02/20 05:08:57;;;;;;;6.13;3.67;;;;;;;7.44;48.11;102030.91;5044256;28;20048;-78
2023/02/20 05:11:25;;;;;;;6.95;4.07;;;;;;;7.44;47.96;102030.03;5063849;28;20467;-77
2023/02/20 05:13:54;;;;;;;7.75;3.78;;;;;;;7.44;47.96;102022.72;5035923;28;20045;-77
2023/02/20 05:16:22;;;;;;;8.43;3.75;;;;;;;7.43;48.10;102026.44;5047232;28;20064;-77
2023/02/20 05:18:50;;;;;;;7.53;3.88;;;;;;;7.42;48.06;102019.25;5037776;28;20048;-77
2023/02/20 05:24:03;;;;;;;6.95;3.58;;;;;;;7.42;48.06;102021.09;5022345;28;20058;-77
2023/02/20 05:26:34;;;;;;;7.10;3.88;;;;;;;7.41;47.76;102031.09;5024450;28;20440;-77
2023/02/20 05:29:03;;;;;;;7.60;3.72;;;;;;;7.43;48.06;102028.28;5032985;28;20064;-76
2023/02/20 05:31:31;;;;;;;7.15;3.63;;;;;;;7.41;48.41;102019.31;5041281;28;20081;-77
2023/02/20 05:33:59;;;;;;;6.43;3.45;;;;;;;7.40;48.01;102029.31;5037756;28;20095;-77
2023/02/20 05:36:27;;;;;;;9.10;3.65;;;;;;;7.40;47.90;102020.28;5037143;28;20063;-77
2023/02/20 05:38:55;;;;;;;6.93;3.72;;;;;;;7.38;48.03;102023.09;5046423;28;20045;-77
2023/02/20 05:41:23;;;;;;;6.22;3.72;;;;;;;7.38;47.78;102027.66;5061705;28;20080;-77
2023/02/20 05:43:50;;;;;;;6.82;3.63;;;;;;;7.38;48.00;102025.81;5061799;28;20037;-77
2023/02/20 05:46:20;;;;;;;7.38;3.78;;;;;;;7.39;47.63;102024.84;5056964;28;20052;-77
2023/02/20 05:48:48;;;;;;;6.95;3.67;;;;;;;7.39;47.91;102021.25;5034415;28;20156;-77
2023/02/20 05:51:21;;;;;;;6.90;3.95;;;;;;;7.39;47.87;102022.13;5039773;28;20037;-77
2023/02/20 05:53:49;;;;;;;8.13;3.50;;;;;;;7.34;47.76;102021.50;5039993;28;20399;-77
2023/02/20 05:56:17;;;;;;;6.18;3.53;;;;;;;7.35;48.03;102015.09;5051261;28;20037;-77
2023/02/20 05:58:45;;;;;;;6.57;3.90;;;;;;;7.36;48.02;102022.28;5047780;28;20052;-77
2023/02/20 06:01:18;;;;;;;7.90;3.50;;;;;;;7.36;47.82;102007.78;5044340;28;20037;-77
2023/02/20 06:03:47;;;;;;;6.68;3.33;;;;;;;7.32;47.72;102015.25;5049649;28;20126;-77
2023/02/20 06:06:15;;;;;;;6.50;3.53;;;;;;;7.33;47.86;102014.31;5050015;28;20103;-77
2023/02/20 06:08:44;;;;;;;6.57;3.50;;;;;;;7.32;48.02;102015.25;5040714;28;20132;-77
2023/02/20 06:11:13;;;;;;;7.22;4.22;;;;;;;7.32;47.78;102015.25;5044927;28;20037;-77
2023/02/20 06:13:41;;;;;;;5.82;3.60;;;;;;;7.31;48.05;102002.59;5048696;28;20073;-77
2023/02/20 06:16:10;;;;;;;5.68;3.05;;;;;;;7.31;47.92;102010.78;5035747;28;20053;-79
2023/02/20 06:18:39;;;;;;;7.13;3.35;;;;;;;7.30;47.90;102008.13;5037277;28;20049;-77
2023/02/20 06:21:09;;;;;;;7.53;3.40;;;;;;;7.29;48.17;102015.41;5047949;28;20091;-76
2023/02/20 06:23:37;;;;;;;6.20;2.97;;;;;;;7.29;47.90;102026.31;5042152;28;20415;-77
2023/02/20 06:26:06;;;;;;;5.68;2.75;;;;;;;7.28;47.99;102019.09;5054428;28;20637;-77
2023/02/20 06:28:34;;;;;;;4.25;2.70;;;;;;;7.27;48.09;102025.50;5049772;28;20087;-77
2023/02/20 06:31:02;;;;;;;5.03;2.47;;;;;;;7.27;47.67;102030.09;5049271;28;20041;-77
2023/02/20 06:33:30;;;;;;;5.20;2.45;;;;;;;7.27;47.59;102024.66;5032920;28;20057;-77
2023/02/20 06:35:58;;;;;;;6.55;2.72;;;;;;;7.26;47.64;102018.34;5042787;28;20049;-78
2023/02/20 06:38:27;;;;;;;4.47;2.42;;;;;;;7.27;47.82;102030.09;5041917;28;20041;-78
2023/02/20 06:40:55;;;;;;;6.88;2.90;;;;;;;7.24;47.85;102028.41;5052965;28;20049;-77
2023/02/20 06:43:23;;;;;;;6.00;3.05;;;;;;;7.24;47.63;102049.31;5044550;28;20049;-77
2023/02/20 06:45:51;;;;;;;6.35;3.00;;;;;;;7.22;47.81;102038.50;5051608;28;20049;-78
2023/02/20 06:48:19;;;;;;;5.70;3.03;;;;;;;7.22;48.02;102043.97;5049516;28;20136;-77
2023/02/20 06:50:46;;;;;;;5.88;3.08;;;;;;;7.22;48.22;102048.53;5039797;28;20038;-77
2023/02/20 06:53:14;;;;;;;8.60;4.20;;;;;;;7.19;47.94;102046.84;5036231;28;20753;-77
2023/02/20 06:55:43;;;;;;;6.25;3.80;;;;;;;7.20;47.72;102048.59;5045300;28;20049;-77
2023/02/20 06:58:11;;;;;;;6.57;4.13;;;;;;;7.18;47.89;102050.56;5052685;28;20100;-77
2023/02/20 07:00:39;;;;;;;7.75;4.85;;;;;;;7.17;47.84;102046.06;5044543;28;20103;-77
2023/02/20 07:03:07;;;;;;;8.43;4.97;;;;;;;7.15;47.75;102053.44;5052214;28;20045;-77
2023/02/20 07:05:35;;;;;;;9.85;4.90;;;;;;;7.15;47.97;102059.75;5046976;28;20037;-76
2023/02/20 07:08:02;;;;;;;7.60;4.90;;;;;;;7.13;48.10;102056.22;5046179;28;20057;-77
2023/02/20 07:10:30;;;;;;;9.10;4.80;;;;;;;7.13;47.86;102055.34;5043633;28;20040;-77
2023/02/20 07:13:02;;;;;;;8.57;5.03;;;;;;;7.13;47.77;102058.06;5047658;28;20041;-77
2023/02/20 07:15:29;;;;;;;9.52;5.63;;;;;;;7.10;47.92;102063.69;5048377;28;20042;-77
2023/02/20 07:17:57;;;;;;;8.57;5.43;;;;;;;7.09;47.86;102062.81;5055521;28;20048;-77
2023/02/20 07:20:25;;;;;;;7.43;4.88;;;;;;;7.09;47.80;102067.38;5054563;28;20571;-77
2023/02/20 07:22:53;;;;;;;9.48;5.85;;;;;;;7.08;47.76;102069.22;5053570;28;20041;-77
2023/02/20 07:25:21;;;;;;;9.52;5.63;;;;;;;7.07;48.24;102062.00;5051413;28;20570;-77
2023/02/20 07:27:49;;;;;;;9.85;5.40;;;;;;;7.08;48.09;102061.06;5053105;28;20091;-77
2023/02/20 07:30:19;;;;;;;11.48;6.53;;;;;;;7.07;48.16;102062.00;5048678;28;20451;-77
2023/02/20 07:32:47;;;;;;;11.63;6.57;;;;;;;7.07;48.01;102069.28;5049981;28;20431;-77
2023/02/20 07:35:14;;;;;;;9.23;6.40;;;;;;;7.06;48.01;102068.41;5041821;28;20064;-77
2023/02/20 07:37:43;;;;;;;10.27;5.47;;;;;;;7.06;47.98;102065.69;5044071;28;20032;-77
2023/02/20 07:40:12;;;;;;;9.18;5.90;;;;;;;7.07;48.34;102069.28;5040651;28;20572;-77
2023/02/20 07:42:40;;;;;;;8.00;5.40;;;;;;;7.06;47.88;102057.53;5058540;28;20047;-77
2023/02/20 07:45:22;;;;;;;9.27;5.57;;;;;;;7.08;48.06;102057.44;5059938;28;20515;-77
2023/02/20 07:47:50;;;;;;;7.85;5.25;;;;;;;7.07;48.17;102053.84;5053405;28;20052;-77
2023/02/20 07:50:18;;;;;;;9.15;5.70;;;;;;;7.04;48.33;102056.72;5052732;28;20044;-77
2023/02/20 07:52:46;;;;;;;7.05;5.03;;;;;;;7.05;48.11;102055.75;5052885;28;20048;-77
2023/02/20 07:55:15;;;;;;;7.85;5.35;;;;;;;7.06;48.13;102068.41;5056846;28;20041;-77
2023/02/20 07:57:46;;;;;;;7.95;5.25;;;;;;;7.06;48.21;102060.25;5053695;28;20049;-77
2023/02/20 08:00:16;;;;;;;7.57;5.35;;;;;;;7.06;48.09;102053.91;5053679;28;20049;-77
2023/02/20 08:02:45;;;;;;;8.07;5.38;;;;;;;7.06;47.89;102067.53;5057920;28;20041;-77
2023/02/20 08:05:13;;;;;;;6.72;5.18;;;;;;;7.05;48.02;102063.94;5058211;28;20104;-77
2023/02/20 08:07:45;;;;;;;9.40;5.70;;;;;;;7.06;48.23;102054.81;5057054;28;20415;-77
2023/02/20 08:10:14;;;;;;;9.43;5.75;;;;;;;7.06;48.20;102067.53;5060191;28;20068;-77
2023/02/20 08:12:42;;;;;;;8.38;5.72;;;;;;;7.07;48.14;102056.56;5055438;28;20045;-77
2023/02/20 08:15:10;;;;;;;10.15;6.05;;;;;;;7.07;47.91;102070.19;5049571;28;20530;-77
2023/02/20 08:17:39;;;;;;;10.85;6.00;;;;;;;7.08;48.02;102063.78;5050084;28;20049;-77
2023/02/20 08:20:16;;;;;;;8.65;5.38;;;;;;;7.09;47.65;102059.22;5051710;28;20045;-77
2023/02/20 08:22:45;;;;;;;10.82;5.97;;;;;;;7.09;48.02;102059.22;5054728;28;20045;-77
2023/02/20 08:25:14;;;;;;;7.57;5.43;;;;;;;7.08;48.06;102060.16;5055874;28;20057;-77
2023/02/20 08:27:42;;;;;;;8.45;5.47;;;;;;;7.08;48.17;102050.16;5057300;28;20045;-77
2023/02/20 08:30:12;;;;;;;8.05;5.78;;;;;;;7.09;47.91;102053.78;5052953;28;20128;-76
2023/02/20 08:32:40;;;;;;;8.77;5.78;;;;;;;7.09;48.02;102056.50;5055387;28;20077;-77
2023/02/20 08:35:09;;;;;;;7.85;5.68;;;;;;;7.09;48.22;102051.94;5057299;28;20492;-77
2023/02/20 08:37:39;;;;;;;10.32;5.72;;;;;;;7.11;48.32;102058.16;5050130;28;20067;-77
2023/02/20 08:40:08;;;;;;;9.25;6.28;;;;;;;7.11;47.99;102049.09;5038682;28;20056;-77
2023/02/20 08:42:36;;;;;;;9.02;5.78;;;;;;;7.10;47.81;102050.97;5045407;28;20507;-77
2023/02/20 08:45:05;;;;;;;8.90;5.97;;;;;;;7.10;48.12;102056.41;5043789;28;20047;-77
2023/02/20 08:47:33;;;;;;;9.57;6.05;;;;;;;7.10;48.21;102056.41;5050379;28;20504;-77
2023/02/20 08:50:01;;;;;;;8.68;5.88;;;;;;;7.11;47.98;102040.94;5049457;28;20041;-77
2023/02/20 08:52:29;;;;;;;10.68;6.50;;;;;;;7.10;48.27;102042.81;5051181;28;20055;-77
2023/02/20 08:54:58;;;;;;;9.98;6.22;;;;;;;7.12;48.16;102049.03;5052504;28;20040;-77
2023/02/20 08:57:26;;;;;;;9.52;5.97;;;;;;;7.13;48.15;102044.47;5042289;28;20045;-77
2023/02/20 08:59:53;;;;;;;8.00;6.03;;;;;;;7.14;48.00;102046.22;5038183;28;20045;-77
2023/02/20 09:02:27;;;;;;;8.95;6.30;;;;;;;7.15;48.29;102047.97;5049529;28;20041;-77
2023/02/20 09:04:56;;;;;;;9.48;5.80;;;;;;;7.14;48.13;102044.38;5045025;28;20064;-77
2023/02/20 09:07:25;;;;;;;10.20;6.32;;;;;;;7.17;48.15;102043.34;5044800;28;20029;-77
2023/02/20 09:09:52;;;;;;;9.48;6.13;;;;;;;7.17;48.04;102046.06;5039894;28;20518;-76
2023/02/20 09:12:22;;;;;;;9.90;6.00;;;;;;;7.18;47.95;102039.66;5043302;28;20091;-76
2023/02/20 09:14:50;;;;;;;10.40;6.35;;;;;;;7.18;48.21;102045.09;5046085;28;20056;-75
2023/02/20 09:17:17;;;;;;;9.90;5.80;;;;;;;7.20;48.29;102048.59;5040188;28;20056;-75
2023/02/20 09:19:45;;;;;;;9.32;5.80;;;;;;;7.22;48.42;102043.97;5038748;28;20063;-76
2023/02/20 09:22:15;;;;;;;11.13;6.38;;;;;;;7.23;48.02;102043.00;5054012;28;20034;-76
2023/02/20 09:24:43;;;;;;;10.85;6.25;;;;;;;7.25;48.24;102048.38;5044008;28;20403;-76
2023/02/20 09:27:10;;;;;;;8.95;5.97;;;;;;;7.25;48.24;102037.47;5053067;28;20042;-76
2023/02/20 09:29:41;;;;;;;7.93;5.65;;;;;;;7.27;48.26;102035.56;5038497;28;20086;-76
2023/02/20 09:32:10;;;;;;;9.13;6.03;;;;;;;7.28;48.29;102034.56;5049453;28;20515;-76
2023/02/20 09:34:38;;;;;;;8.80;5.72;;;;;;;7.30;48.21;102040.81;5050378;28;20709;-76
2023/02/20 09:37:07;;;;;;;9.30;5.82;;;;;;;7.29;48.14;102037.19;5038537;28;20787;-76
2023/02/20 09:39:35;;;;;;;9.10;5.57;;;;;;;7.31;48.23;102045.28;5040336;28;20053;-76
2023/02/20 09:42:21;;;;;;;9.45;5.60;;;;;;;7.36;48.16;102037.75;5052190;28;20041;-76
2023/02/20 09:45:02;;;;;;;9.30;5.45;;;;;;;7.35;48.18;102046.91;5047374;28;20095;-75
2023/02/20 09:47:42;;;;;;;10.18;5.93;;;;;;;7.34;48.33;102058.75;5056954;28;20068;-75
2023/02/20 09:50:14;;;;;;;8.95;5.07;;;;;;;7.35;48.26;102063.25;5046208;28;20041;-77
2023/02/20 09:52:44;;;;;;;9.40;5.30;;;;;;;7.34;48.48;102056.03;5039672;28;20076;-76
2023/02/20 09:55:16;;;;;;;10.75;6.32;;;;;;;7.38;48.43;102060.31;5051494;28;20091;-76
2023/02/20 09:57:48;;;;;;;8.98;5.63;;;;;;;7.37;48.22;102062.16;5047008;28;20050;-76
2023/02/20 10:00:24;;;;;;;8.75;5.78;;;;;;;7.41;48.48;102063.78;5043550;28;20048;-76
2023/02/20 10:03:01;;;;;;;9.82;6.15;;;;;;;7.42;48.61;102053.75;5047007;28;20097;-77
2023/02/20 10:05:30;;;;;;;8.77;5.50;;;;;;;7.42;48.75;102051.91;5049532;28;20164;-76
2023/02/20 10:07:58;;;;;;;9.40;6.10;;;;;;;7.44;48.46;102062.69;5044012;28;20037;-77
2023/02/20 10:10:28;;;;;;;8.60;5.70;;;;;;;7.46;48.43;102056.22;5053553;28;20372;-76
2023/02/20 10:13:12;;;;;;;9.40;5.90;;;;;;;7.49;48.27;102057.91;5049360;28;20067;-76
2023/02/20 10:15:51;;;;;;;9.88;5.38;;;;;;;7.50;48.44;102048.78;5047768;28;20043;-76
2023/02/20 10:18:29;;;;;;;9.40;6.07;;;;;;;7.53;48.36;102054.03;5044349;28;20051;-76
2023/02/20 10:21:05;;;;;;;9.45;5.93;;;;;;;7.54;48.33;102047.63;5037740;28;20420;-76
2023/02/20 10:23:41;;;;;;;9.23;5.82;;;;;;;7.55;48.47;102036.63;5046696;28;20048;-76
2023/02/20 10:26:12;;;;;;;11.07;5.78;;;;;;;7.56;48.34;102035.69;5050417;28;20041;-77
2023/02/20 10:28:41;;;;;;;8.18;5.15;;;;;;;7.54;48.55;102034.88;5048922;28;20045;-76
2023/02/20 10:31:25;;;;;;;10.07;5.85;;;;;;;7.60;48.12;102038.25;5050130;28;20063;-76
2023/02/20 10:33:59;;;;;;;11.13;5.57;;;;;;;7.60;48.28;102033.63;5032826;28;20600;-76
2023/02/20 10:36:34;;;;;;;9.27;5.90;;;;;;;7.61;48.63;102037.25;5035938;28;20041;-76
2023/02/20 10:39:08;;;;;;;9.73;5.97;;;;;;;7.63;48.70;102043.50;5041548;28;20422;-76
2023/02/20 10:41:42;;;;;;;10.50;5.82;;;;;;;7.65;48.59;102038.84;5049969;28;20049;-76
2023/02/20 10:44:17;;;;;;;8.85;5.53;;;;;;;7.65;48.60;102034.28;5036403;28;20034;-76
2023/02/20 10:46:56;;;;;;;10.23;5.82;;;;;;;7.66;48.54;102035.16;5047933;28;20140;-76
2023/02/20 10:49:30;;;;;;;9.75;5.65;;;;;;;7.67;48.60;102045.09;5044335;28;20071;-76
2023/02/20 10:52:00;;;;;;;10.45;6.13;;;;;;;7.70;48.77;102028.56;5041296;28;20052;-76
2023/02/20 10:54:35;;;;;;;9.85;5.88;;;;;;;7.70;48.31;102032.16;5038134;28;20526;-76
2023/02/20 10:57:08;;;;;;;8.18;5.00;;;;;;;7.71;48.81;102035.75;5038846;28;20056;-76
2023/02/20 10:59:42;;;;;;;9.18;5.22;;;;;;;7.72;48.58;102032.06;5041280;28;20040;-76
2023/02/20 11:02:18;;;;;;;9.43;5.47;;;;;;;7.74;48.41;102027.44;5042971;28;20047;-76
2023/02/20 11:04:52;;;;;;;9.75;5.45;;;;;;;7.75;48.57;102024.63;5024193;28;20041;-76
2023/02/20 11:07:21;;;;;;;9.15;5.28;;;;;;;7.75;48.59;102024.63;5019710;28;20045;-76
2023/02/20 11:09:49;;;;;;;9.68;5.40;;;;;;;7.77;48.72;102024.50;5023021;28;20049;-76
2023/02/20 11:12:25;;;;;;;10.07;5.80;;;;;;;7.81;48.52;102024.25;5013958;28;20041;-76
2023/02/20 11:14:56;;;;;;;9.00;5.68;;;;;;;7.81;48.55;102007.03;5012355;28;20050;-76
2023/02/20 11:17:27;;;;;;;8.20;5.38;;;;;;;7.82;48.55;102003.34;5028133;28;20049;-75
2023/02/20 11:19:56;;;;;;;9.52;6.10;;;;;;;7.84;48.49;101995.97;5024381;28;20042;-75
2023/02/20 11:22:40;;;;;;;9.27;5.80;;;;;;;7.86;48.12;101977.66;5029514;28;20042;-76
2023/02/20 11:25:16;;;;;;;8.80;5.70;;;;;;;7.86;48.62;101978.53;5028492;28;20049;-75
2023/02/20 11:27:46;;;;;;;8.68;5.40;;;;;;;7.87;48.47;101979.41;5026324;28;20085;-76
2023/02/20 11:30:26;;;;;;;10.27;5.20;;;;;;;7.90;48.45;101971.94;5017535;28;20388;-76
2023/02/20 11:33:03;;;;;;;11.10;5.97;;;;;;;7.91;48.65;101991.91;5024968;28;20496;-76
2023/02/20 11:35:36;;;;;;;8.15;5.20;;;;;;;7.92;48.64;101988.22;5010682;28;20054;-75
2023/02/20 11:38:29;;;;;;;8.52;5.70;;;;;;;7.91;48.84;101990.06;5032520;28;20128;-76
2023/02/20 11:41:27;;;;;;;9.10;5.38;;;;;;;7.91;48.39;101981.88;5017802;28;20054;-75
2023/02/20 11:44:19;;;;;;;8.60;4.88;;;;;;;7.94;48.63;101994.44;5033161;28;20052;-75
2023/02/20 11:46:48;;;;;;;9.77;5.22;;;;;;;7.98;48.80;101995.16;5046343;28;20044;-77
2023/02/20 11:49:26;;;;;;;7.97;5.60;;;;;;;8.02;48.34;101980.34;5047985;28;20503;-75
2023/02/20 11:52:08;;;;;;;8.95;5.90;;;;;;;8.02;48.43;101978.50;5042765;28;20040;-76
2023/02/20 11:54:36;;;;;;;8.88;5.75;;;;;;;8.01;48.24;101970.44;5051114;28;20047;-77
2023/02/20 11:57:17;;;;;;;8.75;5.63;;;;;;;8.04;48.53;101986.59;5038542;28;20056;-76
2023/02/20 11:59:47;;;;;;;9.13;5.50;;;;;;;8.02;48.55;101980.34;5039903;28;20083;-76
2023/02/20 12:02:32;;;;;;;8.88;5.15;;;;;;;8.01;48.30;101975.88;5060229;28;20119;-77
2023/02/20 12:05:07;;;;;;;8.85;5.30;;;;;;;8.04;48.46;101981.13;5045182;28;20053;-76
2023/02/20 12:07:38;;;;;;;9.52;5.68;;;;;;;8.04;48.27;101975.69;5049702;28;20044;-77
2023/02/20 12:10:23;;;;;;;10.15;6.00;;;;;;;8.06;48.03;101977.38;5038291;28;20045;-77